createdAt,value
2018-08-06T00:00:41.713Z,98241.80
2018-08-06T00:03:10.409Z,98242.16
2018-08-06T00:05:38.986Z,98243.13
2018-08-06T00:08:07.972Z,98242.61
2018-08-06T00:10:36.564Z,98244.78
2018-08-06T00:13:05.165Z,98239.92
2018-08-06T00:15:33.707Z,98226.42
2018-08-06T00:18:02.276Z,98231.03
2018-08-06T00:20:30.866Z,98221.99
2018-08-06T00:22:59.436Z,98224.19
2018-08-06T00:25:27.949Z,98221.94
2018-08-06T00:27:56.509Z,98219.89
2018-08-06T00:30:25.077Z,98222.83
2018-08-06T00:32:53.601Z,98226.13
2018-08-06T00:35:22.089Z,98227.75
2018-08-06T00:37:50.653Z,98224.90
2018-08-06T00:40:20.670Z,98217.31
2018-08-06T00:42:49.697Z,98220.52
2018-08-06T00:45:19.984Z,98217.37
2018-08-06T00:47:49.181Z,98222.14
2018-08-06T00:50:17.786Z,98221.30
2018-08-06T00:52:46.417Z,98221.18
2018-08-06T00:55:19.040Z,98222.36
2018-08-06T00:57:47.639Z,98222.61
2018-08-06T01:00:17.117Z,98229.17
2018-08-06T01:02:45.687Z,98229.84
2018-08-06T01:05:15.113Z,98224.73
2018-08-06T01:07:44.247Z,98217.42
2018-08-06T01:10:18.204Z,98215.31
2018-08-06T01:12:46.815Z,98221.85
2018-08-06T01:15:17.729Z,98222.47
2018-08-06T01:17:46.381Z,98219.45
2018-08-06T01:20:15.316Z,98221.28
2018-08-06T01:22:44.640Z,98222.38
2018-08-06T01:25:13.841Z,98217.47
2018-08-06T01:27:42.428Z,98213.98
2018-08-06T01:30:13.345Z,98213.09
2018-08-06T01:32:42.049Z,98211.73
2018-08-06T01:35:11.361Z,98210.61
2018-08-06T01:37:39.966Z,98213.91
2018-08-06T01:40:12.033Z,98210.99
2018-08-06T01:42:40.841Z,98204.70
2018-08-06T01:45:10.161Z,98207.42
2018-08-06T01:47:39.018Z,98209.53
2018-08-06T01:50:08.557Z,98208.69
2018-08-06T01:52:37.235Z,98205.86
2018-08-06T01:55:05.874Z,98199.39
2018-08-06T01:57:34.629Z,98200.80
2018-08-06T02:00:03.426Z,98202.40
2018-08-06T02:02:32.031Z,98203.44
2018-08-06T02:05:00.571Z,98202.14
2018-08-06T02:07:29.223Z,98199.14
2018-08-06T02:09:57.725Z,98198.66
2018-08-06T02:12:26.368Z,98197.48
2018-08-06T02:14:54.907Z,98202.20
2018-08-06T02:17:23.723Z,98198.39
2018-08-06T02:19:52.947Z,98197.53
2018-08-06T02:22:22.572Z,98201.02
2018-08-06T02:24:51.137Z,98194.02
2018-08-06T02:27:19.721Z,98207.28
2018-08-06T02:29:48.300Z,98210.05
2018-08-06T02:32:16.825Z,98215.60
2018-08-06T02:34:45.475Z,98213.84
2018-08-06T02:37:14.069Z,98218.80
2018-08-06T02:39:42.675Z,98223.98
2018-08-06T02:42:11.187Z,98214.73
2018-08-06T02:44:39.732Z,98213.38
2018-08-06T02:47:08.277Z,98215.58
2018-08-06T02:49:36.900Z,98217.54
2018-08-06T02:52:05.885Z,98220.05
2018-08-06T02:54:34.395Z,98220.12
2018-08-06T02:57:02.949Z,98215.86
2018-08-06T02:59:31.534Z,98217.21
2018-08-06T03:02:00.118Z,98217.12
2018-08-06T03:04:28.668Z,98225.29
2018-08-06T03:06:57.297Z,98233.95
2018-08-06T03:09:25.896Z,98230.76
2018-08-06T03:11:54.444Z,98228.78
2018-08-06T03:14:22.978Z,98229.88
2018-08-06T03:16:51.566Z,98224.42
2018-08-06T03:19:20.159Z,98233.08
2018-08-06T03:21:48.759Z,98234.73
2018-08-06T03:24:17.341Z,98232.65
2018-08-06T03:26:45.905Z,98235.32
2018-08-06T03:29:14.546Z,98245.23
2018-08-06T03:31:43.056Z,98250.16
2018-08-06T03:34:11.676Z,98248.27
2018-08-06T03:36:40.281Z,98251.55
2018-08-06T03:39:10.305Z,98254.27
2018-08-06T03:41:38.976Z,98248.60
2018-08-06T03:44:08.079Z,98246.77
2018-08-06T03:46:36.899Z,98261.44
2018-08-06T03:49:05.595Z,98259.34
2018-08-06T03:51:34.179Z,98260.41
2018-08-06T03:54:02.765Z,98259.09
2018-08-06T03:56:31.288Z,98260.98
2018-08-06T03:58:59.873Z,98260.45
2018-08-06T04:01:28.610Z,98263.94
2018-08-06T04:03:57.252Z,98256.84
2018-08-06T04:06:25.874Z,98255.95
2018-08-06T04:08:54.502Z,98263.50
2018-08-06T04:11:23.193Z,98271.33
2018-08-06T04:13:51.858Z,98268.25
2018-08-06T04:16:20.538Z,98264.64
2018-08-06T04:18:50.412Z,98262.45
2018-08-06T04:21:19.744Z,98272.28
2018-08-06T04:23:48.488Z,98275.27
2018-08-06T04:26:17.156Z,98270.87
2018-08-06T04:28:45.798Z,98269.72
2018-08-06T04:31:14.443Z,98275.38
2018-08-06T04:33:43.064Z,98273.73
2018-08-06T04:36:11.662Z,98274.92
2018-08-06T04:38:41.255Z,98268.95
2018-08-06T04:41:09.942Z,98268.21
2018-08-06T04:43:38.614Z,98270.69
2018-08-06T04:46:07.349Z,98270.36
2018-08-06T04:48:35.804Z,98273.02
2018-08-06T04:51:04.457Z,98271.85
2018-08-06T04:53:33.326Z,98271.50
2018-08-06T04:56:01.951Z,98270.91
2018-08-06T04:58:30.497Z,98268.44
2018-08-06T05:00:59.042Z,98272.42
2018-08-06T05:03:27.679Z,98275.60
2018-08-06T05:05:56.249Z,98270.36
2018-08-06T05:11:18.627Z,98274.39
2018-08-06T05:13:47.341Z,98273.83
2018-08-06T05:16:16.026Z,98277.71
2018-08-06T05:18:44.663Z,98283.23
2018-08-06T05:21:13.243Z,98284.77
2018-08-06T05:23:51.503Z,98287.75
2018-08-06T05:26:20.236Z,98286.20
2018-08-06T05:28:49.558Z,98284.83
2018-08-06T05:31:18.289Z,98285.13
2018-08-06T05:33:46.872Z,98290.62
2018-08-06T05:36:15.733Z,98298.84
2018-08-06T05:38:44.370Z,98293.73
2018-08-06T05:41:12.982Z,98290.75
2018-08-06T05:43:41.742Z,98293.14
2018-08-06T05:46:10.654Z,98295.77
2018-08-06T05:48:40.066Z,98295.48
2018-08-06T05:51:09.457Z,98301.58
2018-08-06T05:53:38.053Z,98304.59
2018-08-06T05:56:07.718Z,98296.25
2018-08-06T05:58:36.358Z,98297.27
2018-08-06T06:01:05.029Z,98303.87
2018-08-06T06:03:33.570Z,98291.92
2018-08-06T06:06:02.242Z,98298.27
2018-08-06T06:08:30.906Z,98297.88
2018-08-06T06:10:59.687Z,98297.18
2018-08-06T06:13:28.335Z,98300.44
2018-08-06T06:15:57.002Z,98294.91
2018-08-06T06:18:25.682Z,98291.13
2018-08-06T06:20:54.950Z,98293.03
2018-08-06T06:23:23.566Z,98294.68
2018-08-06T06:25:52.349Z,98290.19
2018-08-06T06:28:21.036Z,98293.03
2018-08-06T06:30:49.725Z,98297.55
2018-08-06T06:33:18.541Z,98302.91
2018-08-06T06:35:47.317Z,98302.00
2018-08-06T06:38:16.225Z,98294.92
2018-08-06T06:40:45.128Z,98297.83
2018-08-06T06:43:14.276Z,98295.14
2018-08-06T06:45:42.934Z,98302.52
2018-08-06T06:48:11.718Z,98299.66
2018-08-06T06:50:40.334Z,98293.17
2018-08-06T06:53:09.554Z,98287.22
2018-08-06T06:55:38.114Z,98298.50
2018-08-06T06:58:07.023Z,98290.05
2018-08-06T07:00:35.665Z,98292.63
2018-08-06T07:03:04.454Z,98289.96
2018-08-06T07:05:33.131Z,98286.67
2018-08-06T07:08:01.686Z,98296.27
2018-08-06T07:10:30.584Z,98290.54
2018-08-06T07:12:59.227Z,98293.76
2018-08-06T07:15:27.833Z,98295.33
2018-08-06T07:17:56.442Z,98293.17
2018-08-06T07:20:24.977Z,98284.60
2018-08-06T07:22:53.591Z,98290.94
2018-08-06T07:25:22.206Z,98290.86
2018-08-06T07:27:50.769Z,98291.25
2018-08-06T07:30:19.305Z,98289.11
2018-08-06T07:32:47.910Z,98288.52
2018-08-06T07:35:16.476Z,98286.66
2018-08-06T07:37:45.098Z,98279.39
2018-08-06T07:40:14.674Z,98283.17
2018-08-06T07:42:43.268Z,98282.94
2018-08-06T07:45:19.124Z,98292.53
2018-08-06T07:47:48.417Z,98286.16
2018-08-06T07:50:18.839Z,98281.27
2018-08-06T07:52:47.609Z,98281.90
2018-08-06T07:55:16.270Z,98284.07
2018-08-06T07:57:44.890Z,98287.52
2018-08-06T08:00:16.266Z,98288.88
2018-08-06T08:02:44.853Z,98289.88
2018-08-06T08:05:14.799Z,98287.09
2018-08-06T08:07:46.849Z,98282.97
2018-08-06T08:10:18.006Z,98279.68
2018-08-06T08:12:47.136Z,98292.44
2018-08-06T08:15:20.402Z,98275.16
2018-08-06T08:17:49.045Z,98278.84
2018-08-06T08:20:18.332Z,98273.83
2018-08-06T08:22:49.079Z,98272.34
2018-08-06T08:25:19.641Z,98267.91
2018-08-06T08:27:48.277Z,98277.86
2018-08-06T08:30:17.542Z,98273.28
2018-08-06T08:32:46.168Z,98273.38
2018-08-06T08:35:18.572Z,98268.08
2018-08-06T08:37:52.082Z,98272.16
2018-08-06T08:40:22.113Z,98271.53
2018-08-06T08:42:53.713Z,98270.47
2018-08-06T08:45:22.302Z,98270.00
2018-08-06T08:47:50.919Z,98267.95
2018-08-06T08:50:20.421Z,98258.49
2018-08-06T08:52:49.135Z,98258.89
2018-08-06T08:55:18.903Z,98258.09
2018-08-06T08:57:47.460Z,98257.66
2018-08-06T09:00:20.794Z,98249.27
2018-08-06T09:02:50.709Z,98248.59
2018-08-06T09:05:19.725Z,98248.52
2018-08-06T09:07:48.965Z,98253.67
2018-08-06T09:10:18.345Z,98247.37
2018-08-06T09:12:47.478Z,98237.69
2018-08-06T09:15:20.650Z,98243.11
2018-08-06T09:17:49.210Z,98236.20
2018-08-06T09:20:17.777Z,98236.38
2018-08-06T09:22:46.920Z,98230.36
2018-08-06T09:25:18.601Z,98230.98
2018-08-06T09:27:50.194Z,98232.09
2018-08-06T09:30:20.043Z,98224.92
2018-08-06T09:33:03.106Z,98229.48
2018-08-06T09:35:31.673Z,98225.63
2018-08-06T09:38:00.188Z,98216.45
2018-08-06T09:40:28.745Z,98211.16
2018-08-06T09:42:57.301Z,98212.20
2018-08-06T09:45:25.940Z,98218.23
2018-08-06T09:47:54.976Z,98212.39
2018-08-06T09:50:23.625Z,98203.79
2018-08-06T09:52:53.142Z,98198.09
2018-08-06T09:55:24.053Z,98205.98
2018-08-06T09:57:52.963Z,98206.42
2018-08-06T10:00:27.731Z,98199.44
2018-08-06T10:02:57.620Z,98195.01
2018-08-06T10:05:26.818Z,98194.42
2018-08-06T10:07:55.327Z,98194.97
2018-08-06T10:10:24.103Z,98196.53
2018-08-06T10:12:52.632Z,98194.34
2018-08-06T10:15:21.884Z,98187.19
2018-08-06T10:17:51.990Z,98182.23
2018-08-06T10:20:21.838Z,98172.48
2018-08-06T10:22:50.674Z,98170.13
2018-08-06T10:25:19.245Z,98170.45
2018-08-06T10:27:48.279Z,98168.30
2018-08-06T10:30:18.859Z,98162.89
2018-08-06T10:32:48.330Z,98162.28
2018-08-06T10:35:18.056Z,98161.88
2018-08-06T10:37:46.568Z,98151.23
2018-08-06T10:40:16.793Z,98159.23
2018-08-06T10:42:45.749Z,98151.27
2018-08-06T10:45:15.655Z,98152.17
2018-08-06T10:47:44.232Z,98154.22
2018-08-06T10:50:13.565Z,98148.37
2018-08-06T10:52:42.062Z,98147.72
2018-08-06T10:55:11.175Z,98150.42
2018-08-06T10:57:41.194Z,98149.87
2018-08-06T11:00:18.058Z,98140.75
2018-08-06T11:02:47.054Z,98141.28
2018-08-06T11:05:16.410Z,98137.97
2018-08-06T11:07:44.966Z,98139.21
2018-08-06T11:10:14.972Z,98134.30
2018-08-06T11:12:43.534Z,98130.82
2018-08-06T11:15:21.973Z,98125.04
2018-08-06T11:17:50.561Z,98126.81
2018-08-06T11:20:19.838Z,98121.44
2018-08-06T11:22:48.351Z,98117.14
2018-08-06T11:25:18.906Z,98121.05
2018-08-06T11:27:47.595Z,98116.97
2018-08-06T11:30:17.946Z,98108.72
2018-08-06T11:32:47.461Z,98110.81
2018-08-06T11:35:16.309Z,98111.73
2018-08-06T11:37:44.845Z,98104.02
2018-08-06T11:40:14.522Z,98100.13
2018-08-06T11:42:43.874Z,98104.89
2018-08-06T11:45:18.369Z,98100.06
2018-08-06T11:47:46.926Z,98095.23
2018-08-06T11:50:15.473Z,98094.57
2018-08-06T11:52:47.991Z,98084.52
2018-08-06T11:55:16.481Z,98089.95
2018-08-06T11:57:45.003Z,98084.50
2018-08-06T12:00:17.005Z,98085.83
2018-08-06T12:02:46.753Z,98083.70
2018-08-06T12:05:15.294Z,98076.82
2018-08-06T12:07:43.827Z,98078.42
2018-08-06T12:10:15.295Z,98075.02
2018-08-06T12:12:45.830Z,98071.48
2018-08-06T12:15:14.514Z,98074.91
2018-08-06T12:17:43.442Z,98069.41
2018-08-06T12:20:13.962Z,98069.70
2018-08-06T12:22:45.343Z,98060.69
2018-08-06T12:25:14.713Z,98052.34
2018-08-06T12:27:43.723Z,98058.98
2018-08-06T12:30:15.325Z,98055.89
2018-08-06T12:32:47.130Z,98052.23
2018-08-06T12:35:16.233Z,98045.71
2018-08-06T12:37:45.632Z,98044.88
2018-08-06T12:40:17.301Z,98040.92
2018-08-06T12:42:45.827Z,98044.58
2018-08-06T14:10:13.192Z,97957.34
2018-08-06T14:12:41.681Z,97956.72
2018-08-06T14:15:11.498Z,97955.73
2018-08-06T14:17:40.958Z,97940.59
2018-08-06T14:20:11.076Z,97945.36
2018-08-06T14:22:39.561Z,97941.34
2018-08-06T14:25:09.396Z,97941.55
2018-08-06T14:27:38.166Z,97935.41
2018-08-06T14:30:09.722Z,97934.75
2018-08-06T14:32:38.238Z,97932.06
2018-08-06T14:35:07.133Z,97934.38
2018-08-06T14:37:35.660Z,97925.38
2018-08-06T14:40:05.077Z,97932.67
2018-08-06T14:42:33.572Z,97921.68
2018-08-06T14:45:02.113Z,97916.15
2018-08-06T14:47:30.640Z,97917.85
2018-08-06T14:49:59.165Z,97915.67
2018-08-06T14:52:27.641Z,97910.00
2018-08-06T14:54:56.149Z,97910.20
2018-08-06T14:57:24.661Z,97903.63
2018-08-06T14:59:56.111Z,97896.95
2018-08-06T15:02:24.676Z,97897.92
2018-08-06T15:04:56.814Z,97901.83
2018-08-06T15:07:25.373Z,97886.71
2018-08-06T15:09:53.870Z,97884.52
2018-08-06T15:12:22.346Z,97883.17
2018-08-06T15:14:50.882Z,97872.81
2018-08-06T15:17:19.383Z,97867.43
2018-08-06T15:19:47.898Z,97865.45
2018-08-06T15:22:16.449Z,97866.69
2018-08-06T15:24:45.007Z,97872.16
2018-08-06T15:27:14.006Z,97868.73
2018-08-06T15:29:42.524Z,97863.98
2018-08-06T15:32:11.085Z,97863.98
2018-08-06T15:34:39.594Z,97861.05
2018-08-06T15:37:08.098Z,97852.89
2018-08-06T15:39:36.634Z,97851.18
2018-08-06T15:42:05.196Z,97850.36
2018-08-06T15:44:35.803Z,97853.38
2018-08-06T15:47:04.291Z,97850.50
2018-08-06T15:49:32.821Z,97851.53
2018-08-06T15:52:01.331Z,97851.41
2018-08-06T15:54:29.850Z,97849.66
2018-08-06T15:56:58.334Z,97845.98
2018-08-06T15:59:26.789Z,97848.89
2018-08-06T16:01:55.299Z,97840.50
2018-08-06T16:04:23.770Z,97847.92
2018-08-06T16:06:52.292Z,97846.09
2018-08-06T16:09:20.810Z,97845.69
2018-08-06T16:11:49.391Z,97849.19
2018-08-06T16:14:18.129Z,97843.61
2018-08-06T16:16:46.659Z,97841.27
2018-08-06T16:19:15.124Z,97839.78
2018-08-06T16:21:43.631Z,97836.73
2018-08-06T16:24:12.097Z,97834.55
2018-08-06T16:26:40.593Z,97829.49
2018-08-06T16:29:09.070Z,97832.37
2018-08-06T16:31:37.573Z,97825.44
2018-08-06T16:34:06.067Z,97829.19
2018-08-06T16:36:34.681Z,97834.83
2018-08-06T16:39:03.278Z,97824.91
2018-08-06T16:41:31.758Z,97834.70
2018-08-06T16:44:00.291Z,97827.95
2018-08-06T16:46:28.773Z,97830.83
2018-08-06T16:48:58.125Z,97834.12
2018-08-06T16:51:26.667Z,97830.81
2018-08-06T16:53:55.158Z,97836.70
2018-08-06T16:56:23.655Z,97833.45
2018-08-06T16:58:52.186Z,97824.88
2018-08-06T17:01:20.753Z,97817.41
2018-08-06T17:03:49.257Z,97816.81
2018-08-06T17:06:17.835Z,97821.66
2018-08-06T17:08:46.370Z,97816.34
2018-08-06T17:11:14.933Z,97823.03
2018-08-06T17:13:43.433Z,97823.81
2018-08-06T17:16:12.177Z,97824.92
2018-08-06T17:18:40.713Z,97820.58
2018-08-06T17:21:09.278Z,97817.41
2018-08-06T17:23:37.770Z,97823.78
2018-08-06T17:26:06.354Z,97819.95
2018-08-06T17:28:34.864Z,97816.08
2018-08-06T17:31:03.423Z,97819.84
2018-08-06T17:33:32.007Z,97815.45
2018-08-06T17:36:00.550Z,97816.62
2018-08-06T17:38:29.113Z,97817.30
2018-08-06T17:40:57.628Z,97814.20
2018-08-06T17:43:26.184Z,97817.42
2018-08-06T17:45:54.738Z,97819.36
2018-08-06T17:48:23.278Z,97825.55
2018-08-06T17:50:51.755Z,97812.20
2018-08-06T17:53:20.293Z,97812.48
2018-08-06T17:55:48.952Z,97813.84
2018-08-06T17:58:17.366Z,97813.41
2018-08-06T18:00:45.850Z,97821.87
2018-08-06T18:03:14.379Z,97823.88
2018-08-06T18:05:42.901Z,97820.91
2018-08-06T18:08:11.446Z,97820.81
2018-08-06T18:10:40.654Z,97821.98
2018-08-06T18:13:09.212Z,97819.91
2018-08-06T18:15:37.781Z,97821.91
2018-08-06T18:18:07.050Z,97823.80
2018-08-06T18:20:35.534Z,97825.06
2018-08-06T18:23:04.384Z,97829.22
2018-08-06T18:25:32.862Z,97836.89
2018-08-06T18:28:01.366Z,97835.59
2018-08-06T18:30:29.818Z,97835.59
2018-08-06T18:32:58.366Z,97840.97
2018-08-06T18:35:26.861Z,97845.75
2018-08-06T18:37:55.369Z,97849.08
2018-08-06T18:40:24.443Z,97854.09
2018-08-06T18:42:53.073Z,97851.37
2018-08-06T18:45:22.193Z,97850.11
2018-08-06T18:47:51.545Z,97858.52
2018-08-06T18:50:20.501Z,97860.25
2018-08-06T18:52:49.630Z,97862.47
2018-08-06T18:55:18.593Z,97866.50
2018-08-06T18:57:47.548Z,97871.50
2018-08-06T19:00:20.313Z,97872.23
2018-08-06T19:02:49.009Z,97862.50
2018-08-06T19:05:17.563Z,97868.44
2018-08-06T19:07:46.142Z,97869.14
2018-08-06T19:10:14.667Z,97872.67
2018-08-06T19:12:48.517Z,97872.41
2018-08-06T19:15:17.010Z,97870.90
2018-08-06T19:17:50.945Z,97874.98
2018-08-06T19:20:19.480Z,97874.86
2018-08-06T19:22:48.162Z,97874.93
2018-08-06T19:25:21.874Z,97878.48
2018-08-06T19:27:50.508Z,97877.59
2018-08-06T19:30:19.027Z,97876.41
2018-08-06T19:32:47.603Z,97876.41
2018-08-06T19:35:16.248Z,97880.81
2018-08-06T19:37:46.506Z,97881.78
2018-08-06T19:40:15.298Z,97887.89
2018-08-06T19:42:48.905Z,97890.49
2018-08-06T19:45:17.458Z,97895.27
2018-08-06T19:47:46.011Z,97896.84
2018-08-06T19:50:50.389Z,97894.78
2018-08-06T19:53:18.969Z,97902.33
2018-08-06T19:55:52.752Z,97902.94
2018-08-06T19:58:21.273Z,97903.77
2018-08-06T20:00:49.993Z,97906.94
2018-08-06T20:03:18.535Z,97909.80
2018-08-06T20:05:47.073Z,97904.45
2018-08-06T20:08:15.635Z,97900.61
2018-08-06T20:10:44.235Z,97902.67
2018-08-06T20:13:12.787Z,97905.37
2018-08-06T20:15:41.394Z,97903.41
2018-08-06T20:18:09.947Z,97909.51
2018-08-06T20:20:38.563Z,97910.39
2018-08-06T20:23:07.202Z,97903.89
2018-08-06T20:25:35.750Z,97908.45
2018-08-06T20:28:04.419Z,97906.61
2018-08-06T20:30:32.984Z,97911.03
2018-08-06T20:33:01.521Z,97905.17
2018-08-06T20:35:30.143Z,97906.28
2018-08-06T20:37:58.667Z,97902.03
2018-08-06T20:40:27.249Z,97905.97
2018-08-06T20:42:55.799Z,97906.86
2018-08-06T20:45:24.370Z,97916.02
2018-08-06T20:47:52.916Z,97911.28
2018-08-06T20:50:22.645Z,97916.34
2018-08-06T20:52:52.213Z,97919.80
2018-08-06T20:55:20.830Z,97923.85
2018-08-06T20:57:49.954Z,97922.87
2018-08-06T21:00:21.616Z,97920.33
2018-08-06T21:02:50.869Z,97925.78
2018-08-06T21:05:19.524Z,97930.94
2018-08-06T21:07:48.191Z,97928.30
2018-08-06T21:10:17.549Z,97933.92
2018-08-06T21:12:46.494Z,97934.19
2018-08-06T21:15:15.718Z,97933.05
2018-08-06T21:17:44.564Z,97928.25
2018-08-06T21:20:14.381Z,97928.63
2018-08-06T21:22:44.392Z,97933.58
2018-08-06T21:25:13.331Z,97928.27
2018-08-06T21:27:43.141Z,97928.41
2018-08-06T21:30:14.084Z,97931.70
2018-08-06T21:32:44.776Z,97937.15
2018-08-06T21:35:13.385Z,97939.92
2018-08-06T21:37:41.909Z,97936.98
2018-08-06T21:40:10.565Z,97931.25
2018-08-06T21:42:39.442Z,97933.19
2018-08-06T21:45:07.938Z,97934.36
2018-08-06T21:47:36.526Z,97939.02
2018-08-06T21:50:06.408Z,97936.58
2018-08-06T21:52:35.043Z,97943.78
2018-08-06T21:55:03.600Z,97944.63
2018-08-06T21:57:32.185Z,97937.83
2018-08-06T22:00:00.743Z,97946.96
2018-08-06T22:02:29.476Z,97941.64
2018-08-06T22:04:58.041Z,97944.86
2018-08-06T22:07:26.599Z,97946.58
2018-08-06T22:09:55.125Z,97958.95
2018-08-06T22:12:23.694Z,97955.09
2018-08-06T22:14:52.631Z,97957.39
2018-08-06T22:17:21.207Z,97964.20
2018-08-06T22:19:49.699Z,97961.46
2018-08-06T22:22:18.253Z,97962.10
2018-08-06T22:24:46.930Z,97964.61
2018-08-06T22:27:15.486Z,97963.12
2018-08-06T22:29:44.026Z,97956.64
2018-08-06T22:32:12.604Z,97955.32
2018-08-06T22:34:41.169Z,97955.53
2018-08-06T22:37:09.778Z,97958.45
2018-08-06T22:39:38.291Z,97960.31
2018-08-06T22:42:06.881Z,97959.39
2018-08-06T22:44:35.406Z,97956.58
2018-08-06T22:47:03.989Z,97950.87
2018-08-06T22:49:32.605Z,97954.00
2018-08-06T22:52:01.123Z,97943.27
2018-08-06T22:54:29.679Z,97941.16
2018-08-06T22:56:58.227Z,97938.85
2018-08-06T22:59:26.762Z,97942.35
2018-08-06T23:01:55.465Z,97939.20
2018-08-06T23:04:24.476Z,97937.97
2018-08-06T23:06:53.087Z,97937.19
2018-08-06T23:09:21.595Z,97935.36
2018-08-06T23:23:22.099Z,97929.98
2018-08-06T23:25:50.609Z,97923.19
2018-08-06T23:31:11.939Z,97923.02
2018-08-06T23:33:40.515Z,97925.48
2018-08-06T23:36:09.178Z,97921.42
2018-08-06T23:38:37.822Z,97923.02
2018-08-06T23:41:07.713Z,97922.38
2018-08-06T23:43:36.432Z,97913.42
2018-08-06T23:46:05.014Z,97913.18
2018-08-06T23:48:33.896Z,97911.52
2018-08-06T23:51:02.394Z,97915.83
2018-08-06T23:53:30.971Z,97915.63
2018-08-06T23:55:59.534Z,97906.83
2018-08-06T23:58:28.222Z,97903.47
